• Join FlightAware (Why Join?)
  • Login
  • US Flag 
10:21AM EDT


 

Airport Tracker/Info


-or-


 

Live Flight TrackerFlight Track Log ✈ AWE948 ✈ 03-May-2012 ✈ KILM - KCLT

Flight Track Log - Related Links

Times and Time Zones

All times are in EDT time to prevent confusion due to time zone crossing. See the AWE948 flight status page for this flight to view local times or setup timezone preferences in your user account.

Time Position Orientation Groundspeed Altitude Reporting Facility
EDT Latitude Longitude Course Direction KTS MPH feet Rate Location/Type
06:00PM 34.2774 -77.9233 249° West  Level FlightAware Approximate
06:01PM 34.2667 -78.0308 165° South  Level FlightAware Approximate
06:02PM 34.2453 -78.0239 272° West 252 290 4,400  Level Washington Center
06:03PM 34.2475 -78.1169 270° West 276 318 7,300 2,400 Climbing Washington Center
06:06PM 34.2469 -78.5267 269° West 366 421 15,900 2,340 Climbing Jacksonville Center
06:07PM 34.2450 -78.6525 269° West 387 445 18,400 2,100 Climbing Jacksonville Center
06:08PM 34.2431 -78.7856 268° West 393 452 20,200 1,200 Climbing Jacksonville Center
06:10PM 34.2369 -79.0522 288° West 393 452 22,100 600 Climbing Jacksonville Center
06:11PM 34.2700 -79.1764 296° West 393 452 22,100 -360 Level Jacksonville Center
06:12PM 34.3194 -79.3000 292° West 399 459 21,400 -1,140 Descending Jacksonville Center
06:13PM 34.3581 -79.4164 295° West 398 458 19,900 -1,500 Descending Jacksonville Center
06:14PM 34.4053 -79.5381 295° West 383 441 18,500 -1,380 Descending Jacksonville Center
06:15PM 34.4500 -79.6544 294° West 388 447 17,200 -1,500 Descending Jacksonville Center
06:16PM 34.4969 -79.7814 292° West 388 447 15,600 -1,440 Descending Jacksonville Center
06:17PM 34.5306 -79.8808 297° West 388 447 14,400 -1,260 Descending Jacksonville Center
06:18PM 34.5650 -79.9644 294° West 367 422 13,500 -1,320 Descending FAA TRACON SMA TRACON (SMA)
06:19PM 34.5919 -80.0375 295° West 363 418 12,700 -1,200 Descending FAA TRACON SMA TRACON (SMA)
06:19PM 34.6206 -80.1133 294° West 358 412 11,900 -1,080 Descending FAA TRACON SMA TRACON (SMA)
06:20PM 34.6450 -80.1803 295° West 353 406 11,300 -720 Descending FAA TRACON SMA TRACON (SMA)
06:21PM 34.6728 -80.2542 294° West 348 400 11,000 -180 Descending FAA TRACON SMA TRACON (SMA)
06:21PM 34.6989 -80.3269 310° West 304 350 11,100 60 Climbing FAA TRACON SMA TRACON (SMA)
06:22PM 34.7272 -80.3678 314° West 296 341 11,100  Level FAA TRACON SMA TRACON (SMA)
06:23PM 34.7664 -80.4169 315° West 292 336 11,100  Level FAA TRACON SMA TRACON (SMA)
06:23PM 34.8022 -80.4600 315° West 292 336 11,100 -180 Level FAA TRACON SMA TRACON (SMA)
06:24PM 34.8419 -80.5092 314° West 291 335 10,900 -600 Descending FAA TRACON SMA TRACON (SMA)
06:25PM 34.8811 -80.5581 315° West 290 334 10,300 -900 Descending FAA TRACON SMA TRACON (SMA)
06:25PM 34.9161 -80.6011 314° West 290 334 9,700 -900 Descending FAA TRACON SMA TRACON (SMA)
06:26PM 34.9544 -80.6503 314° West 288 331 9,100 -480 Descending FAA TRACON SMA TRACON (SMA)
06:27PM 34.9933 -80.6986 314° West 288 331 9,100  Level FAA TRACON SMA TRACON (SMA)
06:27PM 35.0269 -80.7414 313° West 285 328 9,100  Level FAA TRACON SMA TRACON (SMA)
06:28PM 35.0647 -80.7911 341° North 286 329 9,100  Level FAA TRACON SMA TRACON (SMA)
06:29PM 35.1178 -80.8131 357° North 300 345 9,100 -240 Level FAA TRACON SMA TRACON (SMA)
06:29PM 35.1694 -80.8167 357° North 303 349 8,800 -480 Descending FAA TRACON SMA TRACON (SMA)